createdAt,value
2022-10-19T05:25:07.783Z,56.10
2022-10-19T05:35:09.210Z,54.70
2022-10-19T05:45:10.652Z,53.40
2022-10-19T05:55:12.053Z,53.90
2022-10-19T06:05:13.520Z,53.40
2022-10-19T06:15:14.932Z,52.50
2022-10-19T06:25:19.447Z,52.30
2022-10-19T06:35:21.847Z,51.80
2022-10-19T06:45:23.261Z,51.80
2022-10-19T06:55:24.847Z,51.40
2022-10-19T07:05:26.495Z,52.00
2022-10-19T07:15:28.003Z,51.00
2022-10-19T07:25:29.462Z,51.60
2022-10-19T07:35:30.892Z,49.80
2022-10-19T07:45:32.342Z,48.00
2022-10-19T07:55:33.874Z,47.10
2022-10-19T08:05:35.487Z,46.20
2022-10-19T08:15:36.985Z,44.40
2022-10-19T08:25:38.437Z,43.40
2022-10-19T08:35:40.020Z,44.60
2022-10-19T08:55:47.906Z,42.60
2022-10-19T09:05:49.421Z,42.40
2022-10-19T09:15:50.852Z,41.90
2022-10-19T09:25:52.354Z,42.40
2022-10-19T09:35:53.786Z,41.20
2022-10-19T09:45:55.225Z,41.70
2022-10-19T09:55:56.725Z,42.50
2022-10-19T10:05:58.135Z,42.70
2022-10-19T10:15:59.713Z,42.70
2022-10-19T10:26:01.166Z,42.60
2022-10-19T10:36:02.591Z,43.10
2022-10-19T10:46:04.077Z,43.20
2022-10-19T10:56:05.704Z,43.50
2022-10-19T11:06:07.255Z,44.00
2022-10-19T11:16:08.766Z,44.70
2022-10-19T11:36:30.128Z,45.90
2022-10-19T11:46:38.959Z,45.40
2022-10-19T12:07:15.755Z,45.60
2022-10-19T12:17:29.097Z,45.20
2022-10-19T12:27:35.762Z,45.30
2022-10-19T12:37:44.847Z,46.50
2022-10-19T12:47:58.005Z,45.60
2022-10-19T12:58:07.867Z,44.70
2022-10-19T13:08:27.859Z,45.50
2022-10-19T13:18:38.753Z,46.30
2022-10-19T13:28:55.486Z,44.70
2022-10-19T13:38:57.032Z,43.50
2022-10-19T13:48:58.427Z,45.40
2022-10-19T13:58:59.837Z,42.50
2022-10-19T14:09:01.306Z,42.60
2022-10-19T14:19:02.754Z,43.40
2022-10-19T14:29:04.235Z,42.10
2022-10-19T14:39:05.655Z,42.50
2022-10-19T14:49:07.070Z,41.60
2022-10-19T14:59:08.492Z,42.00
2022-10-19T15:09:15.617Z,42.10
2022-10-19T15:19:26.207Z,40.80
2022-10-19T15:29:27.603Z,41.40
2022-10-19T15:39:37.069Z,41.30
2022-10-19T15:49:40.383Z,40.40
2022-10-19T15:59:41.776Z,40.80
2022-10-19T16:09:43.360Z,40.10
2022-10-19T16:19:44.779Z,40.30
2022-10-19T16:29:46.197Z,40.90
2022-10-19T16:39:47.614Z,41.60
2022-10-19T16:50:02.825Z,40.50
2022-10-19T17:00:04.416Z,42.40
2022-10-19T17:10:05.860Z,41.70
